createdAt,value
2018-05-04T00:01:26.858Z,16.90
2018-05-04T00:03:54.896Z,16.90
2018-05-04T00:06:23.648Z,16.80
2018-05-04T00:08:51.741Z,16.80
2018-05-04T00:11:19.645Z,16.70
2018-05-04T00:13:47.562Z,16.80
2018-05-04T00:16:15.528Z,16.70
2018-05-04T00:18:43.492Z,16.80
2018-05-04T00:21:11.461Z,16.80
2018-05-04T00:23:39.391Z,16.70
2018-05-04T00:26:07.393Z,16.70
2018-05-04T00:28:35.465Z,16.70
2018-05-04T00:31:03.445Z,16.70
2018-05-04T00:33:31.297Z,16.60
2018-05-04T00:35:59.266Z,16.60
2018-05-04T00:38:27.141Z,16.50
2018-05-04T00:40:55.058Z,16.50
2018-05-04T00:43:23.071Z,16.50
2018-05-04T00:45:50.991Z,16.50
2018-05-04T00:48:18.913Z,16.60
2018-05-04T00:50:46.881Z,16.60
2018-05-04T00:53:14.849Z,16.70
2018-05-04T00:55:42.912Z,16.70
2018-05-04T00:58:10.884Z,16.70
2018-05-04T01:00:38.854Z,16.80
2018-05-04T01:03:06.830Z,16.80
2018-05-04T01:05:34.786Z,16.80
2018-05-04T01:08:02.778Z,16.70
2018-05-04T01:10:30.724Z,16.60
2018-05-04T01:12:58.672Z,16.70
2018-05-04T01:15:26.691Z,16.80
2018-05-04T01:17:55.452Z,16.80
2018-05-04T01:20:23.416Z,16.80
2018-05-04T01:22:51.251Z,16.80
2018-05-04T01:25:19.261Z,16.80
2018-05-04T01:27:47.401Z,16.80
2018-05-04T01:30:15.477Z,16.70
2018-05-04T01:32:43.359Z,16.70
2018-05-04T01:35:11.227Z,16.70
2018-05-04T01:37:39.218Z,16.70
2018-05-04T01:40:07.171Z,16.60
2018-05-04T01:42:34.998Z,16.70
2018-05-04T01:45:02.986Z,16.70
2018-05-04T01:47:30.997Z,16.80
2018-05-04T01:49:59.757Z,16.70
2018-05-04T01:52:27.728Z,16.60
2018-05-04T01:54:55.726Z,16.70
2018-05-04T01:57:24.393Z,16.70
2018-05-04T01:59:52.506Z,16.70
2018-05-04T02:02:20.423Z,16.70
2018-05-04T02:04:48.524Z,16.70
2018-05-04T02:07:17.135Z,16.80
2018-05-04T02:09:45.142Z,16.80
2018-05-04T02:12:13.119Z,16.70
2018-05-04T02:14:41.074Z,16.80
2018-05-04T02:17:09.049Z,16.80
2018-05-04T02:19:36.915Z,16.90
2018-05-04T02:22:04.881Z,16.80
2018-05-04T02:24:32.821Z,16.90
2018-05-04T02:27:00.818Z,16.90
2018-05-04T02:29:28.687Z,16.80
2018-05-04T02:31:56.628Z,16.70
2018-05-04T02:34:24.724Z,16.70
2018-05-04T02:36:52.692Z,16.70
2018-05-04T02:39:20.765Z,16.70
2018-05-04T02:41:48.637Z,16.80
2018-05-04T02:44:16.702Z,16.90
2018-05-04T02:46:44.771Z,16.70
2018-05-04T02:49:12.723Z,16.80
2018-05-04T02:51:40.612Z,16.90
2018-05-04T02:54:08.478Z,16.90
2018-05-04T02:56:36.547Z,16.80
2018-05-04T02:59:04.529Z,16.90
2018-05-04T03:01:32.493Z,17.10
2018-05-04T03:04:00.348Z,17.00
2018-05-04T03:06:28.212Z,17.10
2018-05-04T03:08:56.183Z,17.10
2018-05-04T03:11:24.150Z,17.10
2018-05-04T03:13:52.019Z,16.90
2018-05-04T03:16:19.885Z,17.00
2018-05-04T03:18:47.815Z,16.90
2018-05-04T03:21:15.783Z,17.00
2018-05-04T03:23:43.790Z,16.90
2018-05-04T03:26:11.755Z,17.00
2018-05-04T03:28:39.597Z,17.00
2018-05-04T03:31:07.548Z,16.90
2018-05-04T03:33:36.581Z,17.00
2018-05-04T03:36:04.451Z,16.90
2018-05-04T03:38:32.460Z,16.90
2018-05-04T03:41:01.103Z,16.90
2018-05-04T03:43:29.177Z,16.90
2018-05-04T03:45:57.137Z,16.80
2018-05-04T03:48:25.016Z,16.80
2018-05-04T03:50:52.984Z,16.80
2018-05-04T03:53:20.952Z,16.80
2018-05-04T03:55:48.914Z,16.80
2018-05-04T03:58:28.742Z,16.80
2018-05-04T04:01:08.471Z,16.80
2018-05-04T04:03:48.254Z,16.80
2018-05-04T04:06:16.224Z,16.90
2018-05-04T04:08:44.089Z,16.90
2018-05-04T04:11:12.054Z,16.90
2018-05-04T04:13:40.025Z,16.90
2018-05-04T04:16:08.062Z,17.10
2018-05-04T04:18:36.063Z,17.00
2018-05-04T04:21:05.463Z,16.70
2018-05-04T04:23:33.441Z,16.70
2018-05-04T04:26:01.339Z,16.70
2018-05-04T04:28:29.986Z,17.00
2018-05-04T04:30:58.667Z,17.20
2018-05-04T04:33:26.542Z,17.20
2018-05-04T04:35:56.142Z,17.30
2018-05-04T04:38:24.016Z,17.30
2018-05-04T04:40:52.840Z,17.40
2018-05-04T04:43:20.864Z,17.50
2018-05-04T04:45:48.748Z,17.40
2018-05-04T04:48:16.706Z,17.30
2018-05-04T04:50:46.100Z,17.30
2018-05-04T04:53:13.927Z,17.40
2018-05-04T04:55:41.833Z,17.30
2018-05-04T04:58:09.701Z,17.30
2018-05-04T05:00:37.670Z,17.40
2018-05-04T05:03:05.647Z,17.50
2018-05-04T05:05:33.708Z,17.50
2018-05-04T05:08:01.786Z,17.50
2018-05-04T05:10:29.746Z,17.70
2018-05-04T05:12:57.613Z,17.90
2018-05-04T05:15:25.581Z,17.90
2018-05-04T05:17:53.351Z,17.90
2018-05-04T05:20:21.312Z,17.90
2018-05-04T05:22:49.291Z,17.80
2018-05-04T05:25:17.158Z,17.60
2018-05-04T05:27:45.117Z,17.40
2018-05-04T05:30:12.937Z,17.40
2018-05-04T05:32:40.852Z,17.50
2018-05-04T05:35:08.714Z,17.50
2018-05-04T05:37:36.688Z,17.50
2018-05-04T05:40:04.551Z,17.50
2018-05-04T05:42:32.415Z,17.70
2018-05-04T05:45:00.285Z,17.80
2018-05-04T05:47:28.148Z,17.80
2018-05-04T05:49:56.016Z,17.90
2018-05-04T05:52:23.880Z,18.00
2018-05-04T05:54:51.745Z,18.10
2018-05-04T05:57:19.682Z,18.00
2018-05-04T05:59:47.578Z,18.20
2018-05-04T06:02:15.451Z,18.20
2018-05-04T06:04:43.517Z,18.50
2018-05-04T06:07:11.499Z,18.50
2018-05-04T06:09:39.460Z,18.70
2018-05-04T06:12:07.422Z,18.90
2018-05-04T06:14:35.289Z,19.10
2018-05-04T06:17:03.110Z,19.20
2018-05-04T06:19:31.021Z,19.50
2018-05-04T06:21:58.887Z,19.30
2018-05-04T06:24:26.958Z,19.40
2018-05-04T06:26:55.424Z,19.80
2018-05-04T06:29:23.409Z,19.90
2018-05-04T06:31:51.359Z,19.70
2018-05-04T06:34:19.240Z,19.30
2018-05-04T06:36:47.365Z,19.20
2018-05-04T06:39:15.443Z,19.20
2018-05-04T06:41:43.436Z,19.40
2018-05-04T06:44:11.411Z,19.40
2018-05-04T06:46:39.626Z,19.20
2018-05-04T06:49:08.388Z,19.40
2018-05-04T06:51:36.353Z,19.40
2018-05-04T06:54:04.296Z,19.10
2018-05-04T06:56:32.408Z,19.20
2018-05-04T06:59:00.389Z,19.40
2018-05-04T07:01:29.166Z,19.80
2018-05-04T07:03:57.092Z,19.80
2018-05-04T07:06:25.083Z,19.90
2018-05-04T07:08:53.037Z,20.10
2018-05-04T07:11:21.128Z,20.20
2018-05-04T07:13:49.199Z,20.30
2018-05-04T07:16:17.165Z,20.10
2018-05-04T07:18:45.135Z,20.20
2018-05-04T07:21:13.105Z,20.20
2018-05-04T07:23:41.173Z,20.30
2018-05-04T07:26:09.144Z,20.00
2018-05-04T07:28:37.220Z,20.10
2018-05-04T07:31:05.189Z,20.00
2018-05-04T07:33:33.865Z,19.80
2018-05-04T07:36:01.707Z,19.80
2018-05-04T07:38:29.710Z,19.90
2018-05-04T07:40:57.775Z,20.10
2018-05-04T07:43:25.846Z,20.10
2018-05-04T07:45:53.749Z,20.30
2018-05-04T07:48:22.396Z,20.60
2018-05-04T07:50:50.264Z,20.60
2018-05-04T07:53:18.129Z,20.90
2018-05-04T07:55:46.092Z,21.20
2018-05-04T07:58:14.070Z,20.90
2018-05-04T08:00:41.928Z,21.00
2018-05-04T08:03:09.796Z,21.10
2018-05-04T08:05:37.674Z,21.20
2018-05-04T08:08:05.671Z,21.00
2018-05-04T08:10:34.322Z,21.20
2018-05-04T08:13:02.472Z,21.20
2018-05-04T08:15:30.560Z,21.00
2018-05-04T08:17:58.403Z,21.10
2018-05-04T08:20:26.410Z,21.30
2018-05-04T08:22:54.358Z,21.20
2018-05-04T08:25:22.302Z,21.00
2018-05-04T08:27:50.209Z,21.00
2018-05-04T08:30:18.181Z,21.00
2018-05-04T08:32:47.573Z,21.80
2018-05-04T08:35:15.644Z,21.80
2018-05-04T08:37:43.506Z,22.10
2018-05-04T08:40:11.374Z,21.70
2018-05-04T08:42:39.417Z,21.30
2018-05-04T08:45:07.410Z,21.30
2018-05-04T08:47:35.272Z,21.70
2018-05-04T08:50:03.142Z,21.90
2018-05-04T08:52:31.007Z,21.70
2018-05-04T08:54:58.984Z,21.70
2018-05-04T08:57:27.110Z,21.90
2018-05-04T08:59:55.020Z,21.60
2018-05-04T09:02:23.056Z,21.60
2018-05-04T09:04:51.064Z,21.50
2018-05-04T09:07:19.756Z,22.10
2018-05-04T09:09:47.707Z,22.10
2018-05-04T09:12:15.678Z,22.50
2018-05-04T09:14:43.568Z,21.80
2018-05-04T09:17:12.331Z,22.20
2018-05-04T09:19:40.300Z,22.20
2018-05-04T09:22:08.299Z,22.50
2018-05-04T09:24:37.183Z,21.70
2018-05-04T09:27:06.076Z,21.90
2018-05-04T09:29:34.832Z,22.00
2018-05-04T09:32:02.674Z,22.00
2018-05-04T09:34:30.704Z,21.80
2018-05-04T09:36:59.608Z,21.70
2018-05-04T09:39:27.528Z,21.70
2018-05-04T09:41:55.397Z,21.80
2018-05-04T09:44:23.417Z,22.00
2018-05-04T09:46:51.648Z,21.90
2018-05-04T09:49:19.626Z,21.90
2018-05-04T09:51:47.797Z,21.50
2018-05-04T09:54:15.748Z,21.80
2018-05-04T09:56:43.777Z,21.50
2018-05-04T09:59:11.915Z,21.80
2018-05-04T10:01:40.832Z,22.80
2018-05-04T10:04:09.007Z,22.80
2018-05-04T10:06:36.927Z,23.00
2018-05-04T10:09:04.956Z,22.50
2018-05-04T10:11:33.015Z,22.60
2018-05-04T10:14:01.038Z,22.70
2018-05-04T10:16:29.008Z,22.40
2018-05-04T10:18:57.177Z,22.30
2018-05-04T10:21:25.109Z,23.00
2018-05-04T10:23:53.114Z,23.20
2018-05-04T10:26:21.114Z,22.70
2018-05-04T10:28:49.869Z,22.70
2018-05-04T10:31:17.814Z,22.70
2018-05-04T10:33:45.706Z,23.50
2018-05-04T10:36:13.633Z,23.20
2018-05-04T10:38:41.768Z,23.20
2018-05-04T10:41:09.831Z,23.40
2018-05-04T10:43:38.502Z,24.00
2018-05-04T10:46:06.366Z,24.00
2018-05-04T10:48:34.340Z,23.80
2018-05-04T10:51:02.308Z,23.80
2018-05-04T10:53:30.270Z,23.30
2018-05-04T10:55:58.238Z,24.00
2018-05-04T10:58:26.217Z,24.10
2018-05-04T11:00:54.182Z,23.40
2018-05-04T11:03:22.050Z,23.40
2018-05-04T11:05:51.176Z,24.00
2018-05-04T11:08:19.821Z,23.60
2018-05-04T11:10:47.688Z,23.50
2018-05-04T11:13:15.555Z,23.20
2018-05-04T11:15:43.695Z,23.10
2018-05-04T11:18:11.591Z,22.80
2018-05-04T11:20:39.455Z,23.30
2018-05-04T11:23:07.288Z,23.70
2018-05-04T11:25:35.293Z,23.50
2018-05-04T11:28:03.268Z,23.90
2018-05-04T11:30:31.127Z,23.30
2018-05-04T11:32:58.992Z,23.40
2018-05-04T11:35:26.856Z,23.50
2018-05-04T11:37:54.724Z,23.90
2018-05-04T11:40:22.693Z,23.60
2018-05-04T11:42:50.559Z,23.80
2018-05-04T11:45:19.962Z,24.20
2018-05-04T11:47:47.906Z,24.20
2018-05-04T11:50:16.473Z,23.70
2018-05-04T11:52:44.383Z,23.60
2018-05-04T11:55:12.318Z,23.40
2018-05-04T11:57:40.228Z,23.30
2018-05-04T12:00:08.078Z,23.20
2018-05-04T12:02:36.055Z,23.80
2018-05-04T12:05:03.912Z,23.60
2018-05-04T12:07:31.890Z,23.80
2018-05-04T12:10:00.567Z,24.70
2018-05-04T12:12:28.643Z,24.60
2018-05-04T12:14:56.508Z,24.70
2018-05-04T12:17:24.372Z,24.80
2018-05-04T12:19:52.238Z,24.30
2018-05-04T12:22:20.204Z,24.00
2018-05-04T12:24:48.078Z,23.90
2018-05-04T12:27:15.940Z,23.90
2018-05-04T12:29:43.806Z,24.00
2018-05-04T12:32:11.669Z,23.90
2018-05-04T12:34:40.356Z,23.80
2018-05-04T12:37:08.286Z,23.80
2018-05-04T12:39:36.195Z,23.60
2018-05-04T12:42:05.590Z,23.40
2018-05-04T12:44:33.456Z,23.40
2018-05-04T12:47:01.419Z,23.40
2018-05-04T12:49:29.290Z,23.60
2018-05-04T12:51:57.160Z,23.70
2018-05-04T12:54:25.024Z,24.00
2018-05-04T12:56:52.891Z,23.90
2018-05-04T12:59:20.755Z,24.10
2018-05-04T13:01:48.620Z,23.70
2018-05-04T13:04:16.593Z,23.70
2018-05-04T13:06:44.459Z,23.80
2018-05-04T13:09:12.273Z,23.80
2018-05-04T13:11:40.393Z,24.30
2018-05-04T13:14:08.260Z,24.50
2018-05-04T13:16:36.127Z,24.00
2018-05-04T13:19:03.961Z,24.10
2018-05-04T13:21:31.857Z,24.20
2018-05-04T13:23:59.723Z,24.20
2018-05-04T13:26:27.594Z,23.90
2018-05-04T13:28:55.557Z,23.90
2018-05-04T13:31:23.424Z,24.10
2018-05-04T13:33:51.290Z,24.10
2018-05-04T13:36:19.258Z,23.70
2018-05-04T13:38:47.236Z,23.70
2018-05-04T13:41:15.261Z,23.50
2018-05-04T13:43:43.131Z,23.90
2018-05-04T13:46:11.030Z,24.30
2018-05-04T13:48:38.898Z,24.30
2018-05-04T13:51:06.771Z,24.20
2018-05-04T13:53:34.631Z,24.10
2018-05-04T13:56:02.499Z,24.50
2018-05-04T13:58:30.360Z,24.10
2018-05-04T14:00:58.229Z,24.20
2018-05-04T14:03:26.091Z,23.70
2018-05-04T14:05:54.023Z,23.70
2018-05-04T14:08:22.703Z,24.60
2018-05-04T14:10:50.613Z,24.60
2018-05-04T14:13:18.581Z,24.40
2018-05-04T14:15:46.446Z,24.30
2018-05-04T14:18:14.419Z,24.50
2018-05-04T14:20:42.282Z,24.70
2018-05-04T14:23:10.151Z,24.70
2018-05-04T14:25:38.013Z,24.70
2018-05-04T14:28:06.084Z,24.20
2018-05-04T14:30:34.162Z,24.30
2018-05-04T14:33:02.231Z,24.30
2018-05-04T14:35:30.096Z,24.30
2018-05-04T14:37:57.961Z,24.10
2018-05-04T14:40:25.928Z,24.00
2018-05-04T14:42:53.942Z,24.30
2018-05-04T14:45:21.729Z,24.70
2018-05-04T14:47:49.635Z,25.10
2018-05-04T14:50:17.583Z,25.40
2018-05-04T14:52:45.565Z,25.80
2018-05-04T14:55:13.433Z,25.90
2018-05-04T14:57:41.294Z,25.60
2018-05-04T15:00:09.162Z,24.90
2018-05-04T15:02:37.028Z,25.00
2018-05-04T15:05:05.000Z,25.40
2018-05-04T15:07:32.863Z,25.50
2018-05-04T15:10:00.707Z,25.60
2018-05-04T15:12:28.595Z,25.60
2018-05-04T15:14:56.569Z,25.50
2018-05-04T15:17:24.429Z,25.60
2018-05-04T15:19:52.272Z,25.40
2018-05-04T15:22:20.161Z,25.40
2018-05-04T15:24:48.334Z,25.50
2018-05-04T15:27:16.202Z,25.30
2018-05-04T15:29:44.067Z,25.40
2018-05-04T15:32:11.934Z,25.50
2018-05-04T15:34:39.902Z,25.30
2018-05-04T15:37:07.720Z,25.30
2018-05-04T15:39:35.533Z,25.30
2018-05-04T15:42:03.499Z,25.50
2018-05-04T15:44:32.199Z,26.00
2018-05-04T15:47:00.874Z,26.00
2018-05-04T15:49:28.841Z,26.00
2018-05-04T15:52:02.442Z,25.60
2018-05-04T15:54:30.308Z,25.80
2018-05-04T15:56:58.175Z,25.90
2018-05-04T15:59:26.038Z,25.90
2018-05-04T16:01:53.911Z,25.80
2018-05-04T16:04:21.737Z,26.00
2018-05-04T16:06:49.637Z,25.80
2018-05-04T16:09:17.463Z,25.50
2018-05-04T16:11:45.369Z,25.20
2018-05-04T16:14:13.236Z,25.20
2018-05-04T16:16:41.106Z,25.10
2018-05-04T16:19:08.972Z,25.10
2018-05-04T16:21:36.832Z,25.30
2018-05-04T16:24:04.800Z,25.40
2018-05-04T16:26:32.670Z,25.40
2018-05-04T16:29:00.648Z,25.40
2018-05-04T16:31:28.518Z,25.40
2018-05-04T16:33:56.370Z,25.50
2018-05-04T16:36:24.247Z,25.40
2018-05-04T16:38:52.201Z,25.60
2018-05-04T16:41:20.170Z,25.50
2018-05-04T16:43:48.005Z,25.50
2018-05-04T16:46:21.500Z,25.60
2018-05-04T16:48:54.896Z,25.50
2018-05-04T16:51:22.794Z,25.50
2018-05-04T16:53:50.766Z,25.40
2018-05-04T16:56:18.733Z,25.40
2018-05-04T16:58:46.599Z,25.30
2018-05-04T17:01:14.465Z,25.20
2018-05-04T17:03:42.445Z,25.30
2018-05-04T17:06:10.410Z,25.20
2018-05-04T17:08:38.377Z,25.20
2018-05-04T17:11:06.242Z,25.20
2018-05-04T17:13:34.211Z,25.10
2018-05-04T17:16:02.178Z,25.00
2018-05-04T17:18:30.142Z,25.00
2018-05-04T17:20:58.332Z,24.70
2018-05-04T17:23:26.252Z,24.70
2018-05-04T17:25:54.254Z,24.60
2018-05-04T17:28:22.189Z,24.60
2018-05-04T17:30:50.190Z,24.60
2018-05-04T17:33:18.160Z,24.50
2018-05-04T17:35:46.086Z,24.40
2018-05-04T17:38:14.095Z,24.50
2018-05-04T17:40:41.893Z,24.40
2018-05-04T17:43:10.450Z,24.20
2018-05-04T17:45:38.309Z,24.10
2018-05-04T17:48:06.276Z,24.10
2018-05-04T17:50:34.142Z,24.10
2018-05-04T17:53:02.113Z,24.20
2018-05-04T17:55:29.979Z,24.20
2018-05-04T17:57:57.853Z,24.20
2018-05-04T18:00:25.772Z,24.20
2018-05-04T18:02:53.637Z,24.20
2018-05-04T18:05:21.546Z,24.20
2018-05-04T18:07:49.408Z,24.10
2018-05-04T18:10:17.427Z,24.10
2018-05-04T18:12:45.334Z,24.00
2018-05-04T18:15:13.309Z,24.00
2018-05-04T18:17:41.189Z,23.60
2018-05-04T18:20:09.981Z,23.00
2018-05-04T18:22:37.911Z,23.00
2018-05-04T18:25:05.804Z,22.80
2018-05-04T18:27:33.672Z,23.00
2018-05-04T18:30:01.494Z,22.80
2018-05-04T18:32:29.402Z,22.70
2018-05-04T18:34:57.268Z,22.30
2018-05-04T18:37:25.134Z,22.00
2018-05-04T18:39:53.003Z,21.90
2018-05-04T18:42:20.878Z,21.70
2018-05-04T18:44:48.735Z,21.70
2018-05-04T18:47:16.702Z,21.40
2018-05-04T18:49:44.567Z,21.10
2018-05-04T18:52:12.438Z,21.20
2018-05-04T18:54:40.407Z,21.20
2018-05-04T18:57:08.272Z,21.10
2018-05-04T18:59:36.952Z,20.70
2018-05-04T19:02:04.922Z,20.60
2018-05-04T19:04:32.878Z,20.60
2018-05-04T19:07:00.861Z,20.50
2018-05-04T19:09:28.831Z,20.70
2018-05-04T19:11:56.661Z,20.60
2018-05-04T19:14:24.561Z,20.20
2018-05-04T19:16:52.428Z,19.90
2018-05-04T19:19:20.394Z,20.10
2018-05-04T19:21:48.262Z,20.00
2018-05-04T19:24:16.127Z,20.10
2018-05-04T19:26:43.992Z,20.00
2018-05-04T19:29:13.240Z,19.90
2018-05-04T19:31:41.263Z,19.90
2018-05-04T19:34:09.722Z,19.90
2018-05-04T19:36:37.577Z,19.80
2018-05-04T19:39:05.677Z,19.70
2018-05-04T19:41:33.645Z,19.70
2018-05-04T19:44:01.513Z,19.60
2018-05-04T19:46:29.588Z,19.60
2018-05-04T19:48:57.420Z,19.30
2018-05-04T19:51:25.419Z,19.40
2018-05-04T19:53:53.387Z,19.50
2018-05-04T19:56:21.252Z,19.40
2018-05-04T19:58:49.123Z,19.40
2018-05-04T20:01:16.987Z,19.40
2018-05-04T20:03:44.951Z,19.40
2018-05-04T20:06:12.820Z,19.40
2018-05-04T20:08:40.891Z,19.40
2018-05-04T20:11:08.755Z,19.30
2018-05-04T20:13:36.728Z,19.30
2018-05-04T21:59:18.643Z,18.70
2018-05-04T22:01:46.863Z,18.60
2018-05-04T22:04:14.833Z,18.80
2018-05-04T22:06:42.799Z,19.10
2018-05-04T22:09:10.667Z,19.10
2018-05-04T22:11:38.634Z,19.10
2018-05-04T22:14:06.501Z,19.40
2018-05-04T22:16:34.568Z,19.60
2018-05-04T22:19:02.541Z,19.60
2018-05-04T22:21:30.512Z,19.60
2018-05-04T22:23:58.481Z,19.60
2018-05-04T22:26:26.399Z,19.70
2018-05-04T22:28:54.580Z,19.80
2018-05-04T22:31:22.479Z,19.80
2018-05-04T22:33:50.358Z,19.80
2018-05-04T22:36:18.422Z,20.00
2018-05-04T22:38:46.387Z,20.00
2018-05-04T22:41:14.256Z,20.00
2018-05-04T22:43:42.224Z,20.00
2018-05-04T22:46:10.200Z,19.90
2018-05-04T22:48:38.157Z,19.80
2018-05-04T22:51:06.125Z,19.70
2018-05-04T22:53:34.104Z,19.70
2018-05-04T22:56:02.076Z,19.70
2018-05-04T22:58:29.931Z,19.70
2018-05-04T23:00:57.901Z,19.60
2018-05-04T23:03:25.972Z,19.70
2018-05-04T23:05:53.806Z,19.70
2018-05-04T23:08:21.909Z,19.70
2018-05-04T23:10:49.873Z,19.70
2018-05-04T23:13:17.757Z,19.70
2018-05-04T23:15:45.573Z,19.70
2018-05-04T23:18:14.293Z,19.70
2018-05-04T23:20:42.159Z,19.70
2018-05-04T23:23:10.126Z,19.70
2018-05-04T23:25:37.987Z,19.60
2018-05-04T23:28:05.956Z,19.70
2018-05-04T23:30:33.912Z,19.70
2018-05-04T23:33:01.862Z,19.70
2018-05-04T23:35:29.766Z,19.50
2018-05-04T23:37:57.636Z,19.40
2018-05-04T23:40:25.617Z,19.40
2018-05-04T23:42:53.471Z,19.40
2018-05-04T23:45:21.330Z,19.40
2018-05-04T23:47:49.207Z,19.30
2018-05-04T23:50:18.706Z,19.50
2018-05-04T23:52:46.571Z,19.50
2018-05-04T23:55:14.435Z,19.60
2018-05-04T23:57:42.512Z,19.60
